Latest Weather Observations for Nambour

IDQ60801

Issued at 9:02 am EST Thursday 2 July 2015 (issued every 30 minutes, with the page automatically refreshed every 10 minutes)

About weather observations | Map of weather stations | Latest weather observations for QLD | Other Formats
Station Details ID: 040988 Name: NAMBOUR DAFF - HILLSIDE Lat: -26.64 Lon: 152.94 Height: 53.24 m
Data from the previous 72 hours. | See also: Recent months at Nambour
Date/Time
EST
Temp
°C
App
Temp
°C
Dew
Point
Rel
Hum
%
Delta-T
°C
Wind Press
QNH
hPa
Press
MSL
hPa
Rain
since 9 am
mm
Dir
 
Spd
km/h
Gust
km/h
Spd
kts
Gust
kts
02/09:00am 17.3 17.3 11.1 67 3.3 NE 2 4 1 2 1021.8 1021.8 0.0
02/08:30am 15.7 16.0 10.9 73 2.6 CALM 0 0 0 0 1021.9 1021.9 0.0
02/08:00am 13.8 14.1 10.8 82 1.6 CALM 0 0 0 0 1021.5 1021.5 0.0
02/07:30am 12.1 12.2 10.0 87 1.1 CALM 0 0 0 0 1021.3 1021.3 0.0
02/07:00am 10.4 9.5 9.2 92 0.6 W 4 9 2 5 1021.0 1021.0 0.0
02/06:30am 10.9 10.8 9.3 90 0.8 CALM 0 0 0 0 1020.8 1020.8 0.0
02/06:00am 10.9 10.5 9.7 92 0.6 WSW 2 4 1 2 1020.7 1020.7 0.0
02/05:30am 10.9 10.4 9.5 91 0.7 WNW 2 6 1 3 1020.4 1020.4 0.0
02/05:00am 12.0 11.4 8.8 81 1.6 WNW 2 6 1 3 1020.6 1020.6 0.0
02/04:30am 12.8 11.5 9.3 79 1.8 WSW 6 9 3 5 1020.3 1020.3 0.0
02/04:00am 12.5 10.6 9.0 79 1.8 WSW 9 19 5 10 1020.5 1020.5 0.0
02/03:30am 11.2 11.0 9.1 87 1.0 CALM 0 0 0 0 1020.6 1020.6 0.0
02/03:00am 11.6 10.8 8.3 80 1.6 WSW 2 7 1 4 1020.6 1020.6 0.0
02/02:30am 12.9 12.7 10.4 85 1.3 WSW 2 6 1 3 1020.7 1020.7 0.0
02/02:00am 11.3 11.2 9.6 89 0.9 CALM 0 0 0 0 1021.0 1021.0 0.0
02/01:30am 12.0 11.1 9.4 84 1.3 SW 4 9 2 5 1021.0 1021.0 0.0
02/01:00am 11.0 11.1 10.1 94 0.5 CALM 0 4 0 2 1021.5 1021.5 0.0
02/12:30am 11.3 10.7 10.4 94 0.5 WNW 4 11 2 6 1021.6 1021.6 0.0
02/12:00am 11.2 11.3 10.0 92 0.6 CALM 0 0 0 0 1021.8 1021.8 0.0
 
Date/Time
EST
Temp
°C
App
Temp
°C
Dew
Point
Rel
Hum
%
Delta-T
°C
Wind Press
QNH
hPa
Press
MSL
hPa
Rain
since 9 am
mm
Dir
 
Spd
km/h
Gust
km/h
Spd
kts
Gust
kts
01/11:30pm 12.5 12.3 10.4 87 1.1 W 2 6 1 3 1021.9 1021.9 0.0
01/11:00pm 12.5 12.7 10.7 89 0.9 CALM 0 4 0 2 1022.2 1022.2 0.0
01/10:30pm 12.6 12.8 11.7 94 0.5 WNW 2 6 1 3 1022.6 1022.6 0.0
01/10:00pm 13.4 13.6 11.8 90 0.9 W 2 6 1 3 1022.6 1022.6 0.0
01/09:30pm 13.7 14.6 12.8 94 0.5 CALM 0 2 0 1 1022.8 1022.8 0.0
01/09:00pm 13.2 13.9 12.1 93 0.6 CALM 0 2 0 1 1022.7 1022.7 0.0
01/08:30pm 14.1 15.1 13.3 95 0.4 CALM 0 0 0 0 1022.5 1022.5 0.0
01/08:00pm 14.7 15.9 13.9 95 0.4 CALM 0 0 0 0 1022.3 1022.3 0.0
01/07:30pm 14.4 15.4 13.1 92 0.7 CALM 0 2 0 1 1021.9 1021.9 0.0
01/07:00pm 15.3 16.6 14.2 93 0.6 CALM 0 0 0 0 1021.6 1021.6 0.0
01/06:30pm 15.8 17.2 14.5 92 0.7 CALM 0 0 0 0 1021.5 1021.5 0.0
01/06:00pm 16.7 17.9 13.8 83 1.6 CALM 0 0 0 0 1021.4 1021.4 0.0
01/05:30pm 17.9 19.0 14.6 81 1.9 W 2 4 1 2 1021.3 1021.3 0.0
01/05:00pm 19.1 20.3 14.8 76 2.5 WNW 2 2 1 1 1021.1 1021.1 0.0
01/04:30pm 20.3 21.3 14.2 68 3.5 ENE 2 4 1 2 1021.0 1021.0 0.0
01/04:00pm 20.2 20.8 14.3 69 3.4 NE 4 7 2 4 1020.9 1020.9 0.0
01/03:30pm 21.0 21.2 14.2 65 4.0 ENE 6 9 3 5 1020.9 1020.9 0.0
01/03:00pm 20.1 20.6 14.0 68 3.5 NE 4 11 2 6 1020.9 1020.9 0.0
01/02:30pm 21.7 22.0 15.1 66 3.9 E 7 9 4 5 1020.8 1020.8 0.0
01/02:00pm 22.4 22.6 13.2 56 5.3 E 4 9 2 5 1021.1 1021.1 0.0
01/01:30pm 22.0 21.9 13.4 58 5.0 ESE 6 7 3 4 1021.3 1021.3 0.0
01/01:00pm 21.3 21.3 13.7 62 4.4 ESE 6 15 3 8 1021.4 1021.4 0.0
01/12:30pm 22.9 23.2 13.4 55 5.5 NE 4 7 2 4 1021.7 1021.7 0.0
01/12:00pm 22.5 23.1 13.0 55 5.4 ENE 2 6 1 3 1022.4 1022.4 0.0
01/11:30am 22.2 22.7 12.7 55 5.4 ENE 2 6 1 3 1023.0 1023.0 0.0
01/11:00am 21.8 22.0 13.2 58 4.9 ENE 4 7 2 4 1023.5 1023.5 0.0
01/10:30am 20.6 21.3 13.3 63 4.2 ENE 2 4 1 2 1024.0 1024.0 0.0
01/10:00am 20.1 20.5 13.8 67 3.6 NE 4 6 2 3 1024.2 1024.2 0.0
01/09:30am 18.7 19.5 13.6 72 2.9 ENE 2 4 1 2 1024.4 1024.4 0.0
01/09:00am 18.0 19.4 14.3 79 2.1 CALM 0 0 0 0 1024.4 1024.4 0.0
01/08:30am 15.6 16.8 13.8 89 1.0 CALM 0 0 0 0 1024.3 1024.3 0.0
01/08:00am 15.9 17.4 14.6 92 0.7 CALM 0 0 0 0 1024.2 1024.2 0.0
01/07:30am 13.8 14.8 13.3 97 0.3 CALM 0 0 0 0 1024.1 1024.1 0.0
01/07:00am 12.5 13.1 12.0 97 0.3 CALM 0 0 0 0 1023.8 1023.8 0.0
01/06:30am 12.4 13.0 11.8 96 0.3 CALM 0 0 0 0 1023.8 1023.8 0.0
01/06:00am 12.7 13.4 12.1 96 0.3 CALM 0 0 0 0 1023.3 1023.3 0.0
01/05:30am 12.9 13.6 12.3 96 0.3 CALM 0 0 0 0 1023.3 1023.3 0.0
01/05:00am 13.3 14.2 12.8 97 0.3 CALM 0 0 0 0 1023.3 1023.3 0.0
01/04:30am 13.0 13.8 12.4 96 0.3 CALM 0 0 0 0 1023.2 1023.2 0.0
01/04:00am 13.2 14.0 12.6 96 0.3 CALM 0 0 0 0 1023.2 1023.2 0.0
01/03:30am 13.4 14.3 12.8 96 0.3 CALM 0 0 0 0 1023.2 1023.2 0.0
01/03:00am 13.8 14.8 13.2 96 0.3 CALM 0 0 0 0 1023.2 1023.2 0.0
01/02:30am 13.6 14.5 13.0 96 0.3 CALM 0 0 0 0 1023.5 1023.5 0.0
01/02:00am 13.6 14.5 13.0 96 0.3 CALM 0 0 0 0 1023.9 1023.9 0.0
01/01:30am 13.5 14.4 12.9 96 0.3 CALM 0 0 0 0 1024.1 1024.1 0.0
01/01:00am 13.7 14.7 13.1 96 0.3 CALM 0 0 0 0 1024.4 1024.4 0.0
01/12:30am 13.6 14.5 13.0 96 0.3 CALM 0 0 0 0 1024.6 1024.6 0.0
01/12:00am 13.8 14.7 13.0 95 0.4 CALM 0 0 0 0 1024.9 1024.9 0.0
 
Date/Time
EST
Temp
°C
App
Temp
°C
Dew
Point
Rel
Hum
%
Delta-T
°C
Wind Press
QNH
hPa
Press
MSL
hPa
Rain
since 9 am
mm
Dir
 
Spd
km/h
Gust
km/h
Spd
kts
Gust
kts
30/11:30pm 13.9 14.9 13.1 95 0.4 CALM 0 0 0 0 1025.1 1025.1 0.0
30/11:00pm 14.1 15.1 13.1 94 0.5 CALM 0 0 0 0 1025.2 1025.2 0.0
30/10:30pm 14.5 15.3 13.7 95 0.4 WSW 2 4 1 2 1025.5 1025.5 0.0
30/10:00pm 14.6 15.7 13.6 94 0.6 CALM 0 0 0 0 1025.7 1025.7 0.0
30/09:30pm 15.0 16.3 14.2 95 0.5 CALM 0 0 0 0 1025.7 1025.7 0.0
30/09:00pm 15.1 16.4 14.1 94 0.6 CALM 0 0 0 0 1025.7 1025.7 0.0
30/08:30pm 15.0 16.2 13.9 93 0.6 CALM 0 0 0 0 1025.4 1025.4 0.0
30/08:00pm 15.3 16.6 14.2 93 0.6 CALM 0 0 0 0 1025.2 1025.2 0.0
30/07:30pm 15.3 16.5 13.8 91 0.8 CALM 0 0 0 0 1025.0 1025.0 0.0
30/07:00pm 15.9 17.3 14.4 91 0.9 CALM 0 0 0 0 1024.7 1024.7 0.0
30/06:30pm 16.0 17.3 14.2 89 1.0 CALM 0 0 0 0 1024.5 1024.5 0.0
30/06:00pm 16.2 17.2 13.3 83 1.6 CALM 0 0 0 0 1024.4 1024.4 0.0
30/05:30pm 17.0 17.7 13.3 79 2.1 WSW 2 4 1 2 1024.3 1024.3 0.0
30/05:00pm 17.8 18.8 13.3 75 2.5 CALM 0 0 0 0 1024.2 1024.2 0.0
30/04:30pm 19.3 20.1 12.6 65 3.8 CALM 0 0 0 0 1024.1 1024.1 0.0
30/04:00pm 20.8 20.7 12.0 57 4.9 ESE 4 6 2 3 1024.0 1024.0 0.0
30/03:30pm 21.3 21.9 13.0 59 4.7 ENE 2 6 1 3 1024.1 1024.1 0.0
30/03:00pm 20.9 20.7 11.8 56 5.1 E 4 7 2 4 1024.0 1024.0 0.0
30/02:30pm 20.9 20.4 10.7 52 5.6 SE 4 7 2 4 1024.1 1024.1 0.0
30/02:00pm 22.2 22.8 13.0 56 5.3 NE 2 6 1 3 1024.1 1024.1 0.0
30/01:30pm 22.0 21.3 12.0 53 5.6 ENE 7 15 4 8 1024.3 1024.3 0.0
30/01:00pm 21.2 21.4 12.9 59 4.7 ESE 4 9 2 5 1024.7 1024.7 0.0
30/12:30pm 21.6 21.7 13.8 61 4.5 ENE 6 11 3 6 1025.3 1025.3 0.0
30/12:00pm 22.0 22.0 13.6 59 4.8 ESE 6 13 3 7 1026.0 1026.0 0.0
30/11:30am 21.7 22.2 13.9 61 4.5 ESE 4 13 2 7 1026.4 1026.4 0.0
30/11:00am 21.0 20.9 13.4 62 4.3 ESE 6 9 3 5 1026.4 1026.4 0.0
30/10:30am 20.8 20.8 14.2 66 3.8 ESE 7 13 4 7 1026.9 1026.9 0.0
30/10:00am 20.2 20.0 12.9 63 4.1 SW 6 9 3 5 1027.5 1027.5 0.0
30/09:30am 20.3 21.2 14.0 67 3.6 NW 2 6 1 3 1027.5 1027.5 0.0
30/09:00am 19.7 20.8 14.5 72 3.0 SSE 2 7 1 4 1027.5 1027.5 7.6
30/08:30am 18.3 19.1 13.6 74 2.7 WSW 2 6 1 3 1027.6 1027.6 7.6
30/08:00am 16.9 17.8 14.0 83 1.6 W 2 6 1 3 1027.6 1027.6 7.6
30/07:30am 14.5 15.7 13.9 96 0.3 CALM 0 2 0 1 1027.4 1027.4 7.6
30/07:00am 13.4 14.3 12.9 97 0.3 CALM 0 0 0 0 1027.0 1027.0 7.6
30/06:30am 13.2 14.0 12.7 97 0.3 CALM 0 0 0 0 1026.6 1026.6 7.6
30/06:00am 13.2 14.0 12.6 96 0.3 CALM 0 0 0 0 1026.6 1026.6 7.6
30/05:30am 13.4 14.2 12.6 95 0.4 CALM 0 0 0 0 1026.8 1026.8 7.6
30/05:00am 13.9 14.9 13.1 95 0.4 CALM 0 0 0 0 1026.8 1026.8 7.6
30/04:30am 14.3 15.3 13.2 93 0.6 CALM 0 0 0 0 1026.9 1026.9 7.6
30/04:00am 15.1 16.2 13.6 91 0.8 CALM 0 0 0 0 1027.2 1027.2 7.6
30/03:30am 15.4 16.2 13.8 90 0.9 SSW 2 6 1 3 1027.1 1027.1 7.6
30/03:00am 15.9 16.4 14.1 89 1.0 SW 4 9 2 5 1027.3 1027.3 7.6
30/02:30am 15.4 16.4 14.3 93 0.6 SSW 2 6 1 3 1027.6 1027.6 7.4
30/02:00am 15.4 16.8 14.4 94 0.6 CALM 0 2 0 1 1027.4 1027.4 7.4
30/01:30am 15.3 16.7 14.3 94 0.6 CALM 0 0 0 0 1027.6 1027.6 7.4
30/01:00am 15.5 16.9 14.5 94 0.6 CALM 0 7 0 4 1027.9 1027.8 7.4
30/12:30am 15.7 17.2 14.6 93 0.6 CALM 0 6 0 3 1028.0 1027.9 7.4
30/12:00am 15.7 16.9 14.9 95 0.5 WNW 2 6 1 3 1028.1 1028.0 7.4
 
Date/Time
EST
Temp
°C
App
Temp
°C
Dew
Point
Rel
Hum
%
Delta-T
°C
Wind Press
QNH
hPa
Press
MSL
hPa
Rain
since 9 am
mm
Dir
 
Spd
km/h
Gust
km/h
Spd
kts
Gust
kts
29/11:30pm 15.6 16.8 14.8 95 0.5 SSW 2 4 1 2 1028.2 1028.1 7.4
29/11:00pm 15.8 17.4 14.8 94 0.6 CALM 0 6 0 3 1028.5 1028.4 7.2
29/10:30pm 15.8 17.0 15.0 95 0.5 WSW 2 4 1 2 1028.9 1028.8 7.2
29/10:00pm 15.7 17.3 14.9 95 0.5 CALM 0 4 0 2 1029.0 1028.9 7.2
29/09:30pm 15.8 17.0 15.0 95 0.5 ESE 2 6 1 3 1029.0 1028.9 6.8
29/09:00pm 15.8 16.3 15.0 95 0.5 SW 6 9 3 5 1028.9 1028.8 6.8
29/08:30pm 15.8 17.5 15.2 96 0.3 CALM 0 0 0 0 1029.0 1028.9 6.8
29/08:00pm 15.8 16.7 15.2 96 0.3 ESE 4 11 2 6 1028.9 1028.8 6.0
29/07:30pm 15.8 17.5 15.2 96 0.3 CALM 0 2 0 1 1028.6 1028.5 5.8
29/07:00pm 15.8 17.0 15.0 95 0.5 E 2 7 1 4 1028.7 1028.6 3.6
29/06:30pm 16.3 17.4 14.7 90 0.9 E 2 6 1 3 1028.3 1028.2 1.6
29/06:00pm 16.6 17.6 14.2 86 1.4 SSE 2 4 1 2 1027.5 1027.5 0.4
29/05:30pm 16.5 17.1 14.3 87 1.3 SW 4 9 2 5 1027.1 1027.1 0.4
29/05:00pm 16.4 16.8 14.8 90 0.9 SW 6 11 3 6 1027.1 1027.1 0.4
29/04:30pm 16.5 16.5 15.2 92 0.8 SW 9 15 5 8 1027.2 1027.2 0.4
29/04:00pm 16.9 17.8 15.2 90 1.0 ESE 4 7 2 4 1027.6 1027.6 0.4
29/03:30pm 17.2 18.1 15.2 88 1.2 ENE 4 9 2 5 1027.6 1027.6 0.4
29/03:00pm 18.5 19.8 16.1 86 1.4 SSE 4 9 2 5 1027.6 1027.6 0.4
29/02:30pm 17.6 18.4 15.9 90 1.0 SW 6 11 3 6 1027.9 1027.8 0.4
29/02:00pm 17.9 19.2 16.2 90 1.0 SW 4 9 2 5 1028.4 1028.3 0.4
29/01:30pm 18.4 18.6 14.7 79 2.1 ESE 7 13 4 7 1028.8 1028.7 0.0
29/01:00pm 19.5 19.9 14.7 74 2.8 ESE 6 13 3 7 1028.7 1028.6 0.0
29/12:30pm 19.0 19.5 15.1 78 2.3 S 6 9 3 5 1028.9 1028.8 0.0
29/12:00pm 18.7 19.0 14.4 76 2.5 ESE 6 15 3 8 1029.2 1029.1 0.0
29/11:30am 19.4 19.9 14.9 75 2.6 E 6 19 3 10 1029.3 1029.2 0.0
29/11:00am 18.6 19.5 15.1 80 2.0 SE 4 9 2 5 1030.0 1029.9 0.0
29/10:30am 19.1 20.3 15.8 81 2.0 SSW 4 9 2 5 1030.4 1030.3 0.0
29/10:00am 17.8 18.7 15.1 84 1.6 SW 4 9 2 5 1030.6 1030.5 0.0
29/09:30am 18.1 18.8 14.4 79 2.1 ESE 4 9 2 5 1030.7 1030.6 0.0

Other Formats:

Comma delimited format used in spreadsheet applications
http://www.bom.gov.au/fwo/IDQ60801/IDQ60801.95572.axf

JavaScript Object Notation format (JSON) in row-major order
http://www.bom.gov.au/fwo/IDQ60801/IDQ60801.95572.json